< Typhoon 196228 1962 Season Typhoon 196230 >
Typhoon 196229 (LUCY)
General InformationTrack Information on Google Maps || Disaster Info.ResourceGoogle EarthGE AnimationAtom FeedGeoJSON
Detalied Best Track (Time Zone = UTC)
Year Month Day Hour Lat. Long. Pressure (hPa) Wind (kt) Class Image Chart
1962 11 23 06 5.0 144.2 1004 0 2 -- Chart
1962 11 23 12 5.2 143.5 1006 0 2 -- Chart
1962 11 23 18 5.3 142.7 1004 0 2 -- Chart
1962 11 24 00 5.4 142.0 1006 0 2 -- Chart
1962 11 24 06 5.6 141.2 1002 0 2 -- Chart
1962 11 24 12 5.8 140.3 1004 0 2 -- Chart
1962 11 24 18 6.1 139.3 1000 0 2 -- Chart
1962 11 25 00 6.4 138.0 1002 0 2 -- Chart
1962 11 25 06 6.6 136.3 1000 0 2 -- Chart
1962 11 25 12 6.7 134.5 1000 0 2 -- Chart
1962 11 25 18 7.5 132.6 1000 0 2 -- Chart
1962 11 26 00 8.1 130.8 995 0 9 -- Chart
1962 11 26 06 8.4 129.5 995 0 9 -- Chart
1962 11 26 12 8.8 128.3 995 0 9 -- Chart
1962 11 26 18 9.4 127.1 995 0 9 -- Chart
1962 11 27 00 9.7 125.8 990 0 9 -- Chart
1962 11 27 06 10.3 124.5 990 0 9 -- Chart
1962 11 27 12 10.6 122.9 990 0 9 -- Chart
1962 11 27 18 10.6 121.4 990 0 9 -- Chart
1962 11 28 00 10.6 119.8 990 0 9 -- Chart
1962 11 28 06 10.7 118.5 990 0 9 -- Chart
1962 11 28 12 10.6 117.1 990 0 9 -- Chart
1962 11 28 18 10.5 115.8 980 0 9 -- Chart
1962 11 29 00 10.3 114.5 975 0 9 -- Chart
1962 11 29 06 10.1 113.2 975 0 9 -- Chart
1962 11 29 12 10.1 112.0 975 0 9 -- Chart
1962 11 29 18 10.0 111.1 975 0 9 -- Chart
1962 11 30 00 10.0 110.0 975 0 9 -- Chart
1962 11 30 06 9.9 108.6 985 0 9 -- Chart
1962 11 30 12 9.8 106.7 990 0 9 -- Chart
1962 11 30 18 10.0 105.2 990 0 9 -- Chart
1962 12 1 00 10.0 103.5 1002 0 2 -- Chart
Japan Meteorological Agency Best Track Data | Correction Date : 1989-06-01
< Typhoon 196228 1962 Season Typhoon 196230 >

Help